createdAt,value
2022-12-08T00:00:59.207Z,3.72
2022-12-08T00:06:18.852Z,3.70
2022-12-08T00:11:20.026Z,3.69
2022-12-08T00:16:21.267Z,3.69
2022-12-08T00:21:22.557Z,3.69
2022-12-08T00:26:23.720Z,3.69
2022-12-08T00:31:24.942Z,3.72
2022-12-08T00:36:26.233Z,3.72
2022-12-08T00:41:45.983Z,3.75
2022-12-08T00:46:47.238Z,3.77
2022-12-08T00:51:48.392Z,3.80
2022-12-08T00:56:49.531Z,3.78
2022-12-08T01:01:50.773Z,3.78
2022-12-08T01:06:51.982Z,3.79
2022-12-08T01:11:53.217Z,3.79
2022-12-08T01:16:54.458Z,3.77
2022-12-08T01:21:55.702Z,3.77
2022-12-08T01:26:56.839Z,3.82
2022-12-08T01:31:58.050Z,3.83
2022-12-08T01:36:59.274Z,3.83
2022-12-08T01:42:00.506Z,3.83
2022-12-08T01:47:01.769Z,3.84
2022-12-08T01:52:02.927Z,3.86
2022-12-08T01:57:04.119Z,3.87
2022-12-08T02:02:05.370Z,3.86
2022-12-08T02:07:08.318Z,3.84
2022-12-08T02:12:09.689Z,3.82
2022-12-08T02:17:10.871Z,3.83
2022-12-08T02:22:12.022Z,3.83
2022-12-08T02:27:13.202Z,3.81
2022-12-08T02:32:14.367Z,3.79
2022-12-08T02:37:15.547Z,3.79
2022-12-08T02:42:16.692Z,3.81
2022-12-08T02:47:18.037Z,3.81
2022-12-08T02:52:19.246Z,3.80
2022-12-08T02:57:20.460Z,3.79
2022-12-08T03:02:21.621Z,3.82
2022-12-08T03:07:22.886Z,3.83
2022-12-08T03:12:24.006Z,3.83
2022-12-08T03:17:25.965Z,3.84
2022-12-08T03:22:27.132Z,3.84
2022-12-08T03:27:28.363Z,3.84
2022-12-08T03:32:29.547Z,3.83
2022-12-08T03:37:30.757Z,3.82
2022-12-08T03:42:31.882Z,3.82
2022-12-08T03:47:32.999Z,3.79
2022-12-08T03:52:34.207Z,3.77
2022-12-08T03:57:35.441Z,3.77
2022-12-08T04:02:36.686Z,3.74
2022-12-08T04:07:37.939Z,3.72
2022-12-08T04:12:39.174Z,3.73
2022-12-08T04:17:40.382Z,3.74
2022-12-08T04:22:41.535Z,3.73
2022-12-08T04:27:42.833Z,3.75
2022-12-08T04:32:47.356Z,3.75
2022-12-08T04:37:48.914Z,3.75
2022-12-08T04:42:50.066Z,3.72
2022-12-08T04:47:51.236Z,3.69
2022-12-08T04:52:52.462Z,3.69
2022-12-08T04:57:53.666Z,3.66
2022-12-08T05:02:54.847Z,3.65
2022-12-08T05:07:56.161Z,3.65
2022-12-08T05:12:57.384Z,3.68
2022-12-08T05:17:58.605Z,3.70
2022-12-08T05:22:59.837Z,3.73
2022-12-08T05:28:32.317Z,3.73
2022-12-08T05:33:22.237Z,3.75
2022-12-08T05:38:23.441Z,3.77
2022-12-08T05:43:24.589Z,3.74
2022-12-08T05:48:25.753Z,3.73
2022-12-08T05:53:26.925Z,3.72
2022-12-08T05:58:28.226Z,3.70
2022-12-08T06:03:29.475Z,3.69
2022-12-08T06:08:30.880Z,3.67
2022-12-08T06:13:32.051Z,3.69
2022-12-08T06:18:33.225Z,3.73
2022-12-08T06:23:34.486Z,3.69
2022-12-08T06:28:35.678Z,3.70
2022-12-08T06:33:36.853Z,3.66
2022-12-08T06:38:42.957Z,3.60
2022-12-08T06:43:44.706Z,3.57
2022-12-08T06:48:45.879Z,3.49
2022-12-08T06:53:47.322Z,3.46
2022-12-08T06:58:52.316Z,3.42
2022-12-08T07:03:54.311Z,3.41
2022-12-08T07:08:55.464Z,3.37
2022-12-08T07:13:57.061Z,3.38
2022-12-08T07:18:58.279Z,3.39
2022-12-08T07:23:59.459Z,3.39
2022-12-08T07:29:00.716Z,3.38
2022-12-08T07:34:01.910Z,3.37
2022-12-08T07:39:03.084Z,3.36
2022-12-08T07:44:04.418Z,3.35
2022-12-08T07:49:05.589Z,3.36
2022-12-08T07:54:06.783Z,3.32
2022-12-08T07:59:08.025Z,3.32
2022-12-08T08:04:09.206Z,3.31
2022-12-08T08:09:10.534Z,3.32
2022-12-08T08:14:11.714Z,3.29
2022-12-08T08:19:12.947Z,3.28
2022-12-08T08:24:14.128Z,3.18
2022-12-08T08:29:15.319Z,3.11
2022-12-08T08:34:16.506Z,3.07
2022-12-08T08:39:17.708Z,3.07
2022-12-08T08:44:19.101Z,3.07
2022-12-08T08:49:20.325Z,3.13
2022-12-08T08:54:21.516Z,3.18
2022-12-08T08:59:22.691Z,3.26
2022-12-08T09:04:23.901Z,3.33
2022-12-08T09:09:25.115Z,3.38
2022-12-08T09:14:26.532Z,3.42
2022-12-08T09:19:27.768Z,3.50
2022-12-08T09:24:28.945Z,3.52
2022-12-08T09:29:35.567Z,3.52
2022-12-08T09:34:37.455Z,3.62
2022-12-08T09:39:38.625Z,3.60
2022-12-08T09:44:39.805Z,3.59
2022-12-08T09:49:42.085Z,3.61
2022-12-08T09:54:43.248Z,3.67
2022-12-08T09:59:44.397Z,3.63
2022-12-08T10:04:45.649Z,3.60
2022-12-08T10:09:47.589Z,3.66
2022-12-08T10:14:49.129Z,3.63
2022-12-08T10:19:50.291Z,3.70
2022-12-08T10:24:51.448Z,3.73
2022-12-08T10:29:52.677Z,3.65
2022-12-08T10:34:56.463Z,3.51
2022-12-08T10:39:57.778Z,3.40
2022-12-08T10:44:59.457Z,3.41
2022-12-08T10:50:00.608Z,3.40
2022-12-08T10:55:01.809Z,3.42
2022-12-08T11:00:03.512Z,3.46
2022-12-08T11:05:05.803Z,3.54
2022-12-08T11:10:07.339Z,3.63
2022-12-08T11:15:08.750Z,3.64
2022-12-08T11:20:09.936Z,3.62
2022-12-08T11:25:11.276Z,3.63
2022-12-08T11:30:14.536Z,3.69
2022-12-08T11:35:16.167Z,3.70
2022-12-08T11:40:17.317Z,3.78
2022-12-08T11:45:18.471Z,3.77
2022-12-08T11:50:19.968Z,3.79
2022-12-08T11:55:21.269Z,3.84
2022-12-08T12:00:22.486Z,3.88
2022-12-08T12:05:39.797Z,3.89
2022-12-08T12:10:44.758Z,3.86
2022-12-08T12:15:45.937Z,3.91
2022-12-08T12:20:47.120Z,3.91
2022-12-08T12:25:48.299Z,3.86
2022-12-08T12:30:49.750Z,3.62
2022-12-08T12:35:51.037Z,3.89
2022-12-08T12:40:52.246Z,3.96
2022-12-08T12:45:53.535Z,4.08
2022-12-08T12:50:55.129Z,4.15
2022-12-08T12:55:56.395Z,4.13
2022-12-08T13:00:57.649Z,4.15
2022-12-08T13:05:58.968Z,4.23
2022-12-08T13:11:00.710Z,4.22
2022-12-08T13:16:09.985Z,4.27
2022-12-08T13:21:16.960Z,4.26
2022-12-08T13:26:18.211Z,4.22
2022-12-08T13:31:19.418Z,4.17
2022-12-08T13:36:20.582Z,4.19
2022-12-08T13:41:21.827Z,4.14
2022-12-08T13:57:11.119Z,4.19
2022-12-08T14:02:12.634Z,4.18
2022-12-08T14:07:13.788Z,4.13
2022-12-08T14:12:14.930Z,4.09
2022-12-08T14:17:16.191Z,4.03
2022-12-08T14:22:17.385Z,3.97
2022-12-08T14:27:18.593Z,3.93
2022-12-08T14:32:20.114Z,3.91
2022-12-08T14:37:21.375Z,3.90
2022-12-08T14:42:22.510Z,3.92
2022-12-08T14:47:23.745Z,3.94
2022-12-08T14:52:24.914Z,3.93
2022-12-08T14:57:26.134Z,3.91
2022-12-08T15:02:27.350Z,3.88
2022-12-08T15:07:28.551Z,3.84
2022-12-08T15:12:31.774Z,3.82
2022-12-08T15:17:33.029Z,3.80
2022-12-08T15:22:34.187Z,3.75
2022-12-08T15:27:46.947Z,3.71
2022-12-08T15:32:52.615Z,3.67
2022-12-08T15:37:53.766Z,3.59
2022-12-08T15:42:54.966Z,3.51
2022-12-08T15:47:56.143Z,3.45
2022-12-08T15:52:57.356Z,3.41
2022-12-08T16:03:59.327Z,3.41
2022-12-08T16:08:56.218Z,3.42
2022-12-08T16:14:24.808Z,3.41
2022-12-08T16:19:23.467Z,3.37
2022-12-08T16:24:24.746Z,3.33
2022-12-08T16:29:26.194Z,3.27
2022-12-08T16:34:27.324Z,3.24
2022-12-08T16:39:28.545Z,3.22
2022-12-08T16:44:29.825Z,3.25
2022-12-08T16:49:30.942Z,3.28
2022-12-08T16:54:32.105Z,3.30
2022-12-08T16:59:33.242Z,3.32
2022-12-08T17:04:34.493Z,3.36
2022-12-08T17:09:35.777Z,3.37
2022-12-08T17:14:36.943Z,3.38
2022-12-08T17:19:38.104Z,3.39
2022-12-08T17:24:39.306Z,3.35
2022-12-08T17:29:40.448Z,3.30
2022-12-08T17:34:41.621Z,3.29
2022-12-08T17:39:42.899Z,3.29
2022-12-08T17:44:46.560Z,3.26
2022-12-08T17:49:47.760Z,3.24
2022-12-08T17:54:49.940Z,3.23
2022-12-08T17:59:51.127Z,3.21
2022-12-08T18:04:52.319Z,3.18
2022-12-08T18:09:53.621Z,3.17
2022-12-08T18:14:54.821Z,3.12
2022-12-08T18:19:55.999Z,3.07
2022-12-08T18:24:57.194Z,3.06
2022-12-08T18:29:58.370Z,3.06
2022-12-08T18:34:59.528Z,3.04
2022-12-08T18:40:00.730Z,3.03
2022-12-08T18:45:06.818Z,3.01
2022-12-08T18:50:08.088Z,3.00
2022-12-08T18:55:09.408Z,2.99
2022-12-08T19:00:10.632Z,2.96
2022-12-08T19:05:11.860Z,2.96
2022-12-08T19:10:13.092Z,2.94
2022-12-08T19:15:14.315Z,2.92
2022-12-08T19:20:15.529Z,2.91
2022-12-08T19:25:16.706Z,2.90
2022-12-08T19:30:17.981Z,2.92
2022-12-08T19:35:19.140Z,2.92
2022-12-08T19:40:39.209Z,2.89
2022-12-08T19:45:40.626Z,2.86
2022-12-08T19:50:42.005Z,2.80
2022-12-08T19:55:43.293Z,2.76
2022-12-08T20:00:44.637Z,2.73
2022-12-08T20:05:46.145Z,2.68
2022-12-08T20:10:47.330Z,2.68
2022-12-08T20:15:48.626Z,2.68
2022-12-08T20:20:49.921Z,2.70
2022-12-08T20:25:51.155Z,2.68
2022-12-08T20:30:52.489Z,2.67
2022-12-08T20:35:58.838Z,2.69
2022-12-08T20:41:00.640Z,2.70
2022-12-08T20:46:01.874Z,2.74
2022-12-08T20:51:03.299Z,2.76
2022-12-08T20:56:04.470Z,2.78
2022-12-08T21:01:05.877Z,2.79
2022-12-08T21:06:07.456Z,2.77
2022-12-08T21:11:08.831Z,2.69
2022-12-08T21:16:10.145Z,2.57
2022-12-08T21:21:11.601Z,2.49
2022-12-08T21:26:13.053Z,2.46
2022-12-08T21:31:14.456Z,2.49
2022-12-08T21:36:15.686Z,2.55
2022-12-08T21:41:37.263Z,2.60
2022-12-08T21:46:38.523Z,2.65
2022-12-08T21:51:42.200Z,2.68
2022-12-08T21:56:43.609Z,2.71
2022-12-08T22:01:45.176Z,2.72
2022-12-08T22:06:46.655Z,2.71
2022-12-08T22:11:47.943Z,2.66
2022-12-08T22:16:49.288Z,2.67
2022-12-08T22:21:50.642Z,2.67
2022-12-08T22:26:51.855Z,2.67
2022-12-08T22:31:53.100Z,2.67
2022-12-08T22:36:54.338Z,2.69
2022-12-08T22:41:55.591Z,2.68
2022-12-08T22:46:56.815Z,2.68
2022-12-08T22:51:58.230Z,2.69
2022-12-08T22:56:59.376Z,2.72
2022-12-08T23:02:00.711Z,2.71
2022-12-08T23:07:01.869Z,2.70
2022-12-08T23:12:03.063Z,2.70
2022-12-08T23:17:04.388Z,2.68
2022-12-08T23:22:05.804Z,2.64
2022-12-08T23:27:07.061Z,2.60
2022-12-08T23:32:08.459Z,2.53
2022-12-08T23:37:09.787Z,2.48
2022-12-08T23:42:11.110Z,2.44
2022-12-08T23:47:12.496Z,2.41
2022-12-08T23:52:13.863Z,2.39
2022-12-08T23:57:15.282Z,2.34
